sensor_id;sensor_type;location;lat;lon;timestamp;P1;durP1;ratioP1;P2;durP2;ratioP2
16593;SDS011;8410;52.532;13.336;2023-02-01T00:00:02;16.67;;;4.23;;
16593;SDS011;8410;52.532;13.336;2023-02-01T00:02:31;17.07;;;3.93;;
16593;SDS011;8410;52.532;13.336;2023-02-01T00:04:58;14.63;;;4.03;;
16593;SDS011;8410;52.532;13.336;2023-02-01T00:07:25;24.17;;;4.57;;
16593;SDS011;8410;52.532;13.336;2023-02-01T00:09:54;21.03;;;4.70;;
16593;SDS011;8410;52.532;13.336;2023-02-01T00:12:22;17.97;;;3.87;;
16593;SDS011;8410;52.532;13.336;2023-02-01T00:14:49;16.40;;;3.87;;
16593;SDS011;8410;52.532;13.336;2023-02-01T00:17:17;16.13;;;4.57;;
16593;SDS011;8410;52.532;13.336;2023-02-01T00:19:44;18.17;;;4.40;;
16593;SDS011;8410;52.532;13.336;2023-02-01T00:22:12;14.33;;;3.80;;
16593;SDS011;8410;52.532;13.336;2023-02-01T00:24:39;18.77;;;4.63;;
16593;SDS011;8410;52.532;13.336;2023-02-01T00:27:08;16.37;;;3.13;;
16593;SDS011;8410;52.532;13.336;2023-02-01T00:29:35;17.80;;;3.67;;
16593;SDS011;8410;52.532;13.336;2023-02-01T00:32:03;16.63;;;3.67;;
16593;SDS011;8410;52.532;13.336;2023-02-01T00:34:31;17.60;;;3.77;;
16593;SDS011;8410;52.532;13.336;2023-02-01T00:36:58;17.33;;;4.17;;
16593;SDS011;8410;52.532;13.336;2023-02-01T00:39:26;21.17;;;4.63;;
16593;SDS011;8410;52.532;13.336;2023-02-01T00:41:53;17.67;;;3.90;;
16593;SDS011;8410;52.532;13.336;2023-02-01T00:44:22;18.90;;;3.87;;
16593;SDS011;8410;52.532;13.336;2023-02-01T00:46:50;19.30;;;3.47;;
16593;SDS011;8410;52.532;13.336;2023-02-01T00:49:17;10.23;;;2.53;;
16593;SDS011;8410;52.532;13.336;2023-02-01T00:51:45;15.57;;;3.03;;
16593;SDS011;8410;52.532;13.336;2023-02-01T00:54:12;17.27;;;3.60;;
16593;SDS011;8410;52.532;13.336;2023-02-01T00:56:39;13.90;;;2.97;;
16593;SDS011;8410;52.532;13.336;2023-02-01T00:59:07;19.30;;;4.40;;
16593;SDS011;8410;52.532;13.336;2023-02-01T01:01:38;16.63;;;3.73;;
16593;SDS011;8410;52.532;13.336;2023-02-01T01:04:06;16.43;;;3.13;;
16593;SDS011;8410;52.532;13.336;2023-02-01T01:06:34;14.00;;;3.70;;
16593;SDS011;8410;52.532;13.336;2023-02-01T01:09:03;13.60;;;3.50;;
16593;SDS011;8410;52.532;13.336;2023-02-01T01:11:33;17.77;;;3.13;;
16593;SDS011;8410;52.532;13.336;2023-02-01T01:14:03;13.40;;;2.90;;
16593;SDS011;8410;52.532;13.336;2023-02-01T01:16:32;11.73;;;3.17;;
16593;SDS011;8410;52.532;13.336;2023-02-01T01:19:01;17.37;;;3.37;;
16593;SDS011;8410;52.532;13.336;2023-02-01T01:21:29;15.73;;;3.63;;
16593;SDS011;8410;52.532;13.336;2023-02-01T01:23:57;12.40;;;2.93;;
16593;SDS011;8410;52.532;13.336;2023-02-01T01:26:25;11.03;;;2.50;;
16593;SDS011;8410;52.532;13.336;2023-02-01T01:28:54;13.97;;;3.20;;
16593;SDS011;8410;52.532;13.336;2023-02-01T01:31:22;16.13;;;2.87;;
16593;SDS011;8410;52.532;13.336;2023-02-01T01:33:51;11.60;;;3.47;;
16593;SDS011;8410;52.532;13.336;2023-02-01T01:36:21;16.03;;;3.10;;
16593;SDS011;8410;52.532;13.336;2023-02-01T01:38:49;15.23;;;2.90;;
16593;SDS011;8410;52.532;13.336;2023-02-01T01:41:18;16.23;;;3.33;;
16593;SDS011;8410;52.532;13.336;2023-02-01T01:43:51;14.50;;;2.63;;
16593;SDS011;8410;52.532;13.336;2023-02-01T01:46:21;13.00;;;3.60;;
16593;SDS011;8410;52.532;13.336;2023-02-01T01:48:52;12.50;;;3.70;;
16593;SDS011;8410;52.532;13.336;2023-02-01T01:51:28;15.00;;;3.43;;
16593;SDS011;8410;52.532;13.336;2023-02-01T01:53:59;13.30;;;3.50;;
16593;SDS011;8410;52.532;13.336;2023-02-01T01:56:31;13.70;;;3.00;;
16593;SDS011;8410;52.532;13.336;2023-02-01T01:59:01;16.03;;;3.53;;
16593;SDS011;8410;52.532;13.336;2023-02-01T02:01:29;13.30;;;2.97;;
16593;SDS011;8410;52.532;13.336;2023-02-01T02:03:56;14.80;;;3.00;;
16593;SDS011;8410;52.532;13.336;2023-02-01T02:06:30;15.53;;;3.00;;
16593;SDS011;8410;52.532;13.336;2023-02-01T02:09:02;20.53;;;3.57;;
16593;SDS011;8410;52.532;13.336;2023-02-01T02:11:32;16.73;;;3.57;;
16593;SDS011;8410;52.532;13.336;2023-02-01T02:13:59;12.43;;;2.93;;
16593;SDS011;8410;52.532;13.336;2023-02-01T02:16:35;17.20;;;3.40;;
16593;SDS011;8410;52.532;13.336;2023-02-01T02:19:16;13.77;;;3.10;;
16593;SDS011;8410;52.532;13.336;2023-02-01T02:22:02;15.70;;;2.97;;
16593;SDS011;8410;52.532;13.336;2023-02-01T02:25:01;14.80;;;3.90;;
16593;SDS011;8410;52.532;13.336;2023-02-01T02:27:51;15.07;;;3.00;;
16593;SDS011;8410;52.532;13.336;2023-02-01T02:30:33;18.40;;;3.43;;
16593;SDS011;8410;52.532;13.336;2023-02-01T02:33:30;15.03;;;4.17;;
16593;SDS011;8410;52.532;13.336;2023-02-01T02:36:09;17.83;;;3.57;;
16593;SDS011;8410;52.532;13.336;2023-02-01T02:38:46;15.43;;;3.57;;
16593;SDS011;8410;52.532;13.336;2023-02-01T02:41:20;11.53;;;3.37;;
16593;SDS011;8410;52.532;13.336;2023-02-01T02:44:12;14.33;;;3.70;;
16593;SDS011;8410;52.532;13.336;2023-02-01T02:47:04;13.87;;;3.33;;
16593;SDS011;8410;52.532;13.336;2023-02-01T02:50:04;19.70;;;4.27;;
16593;SDS011;8410;52.532;13.336;2023-02-01T02:52:57;18.63;;;3.70;;
16593;SDS011;8410;52.532;13.336;2023-02-01T02:55:48;15.93;;;3.77;;
16593;SDS011;8410;52.532;13.336;2023-02-01T02:58:18;15.07;;;3.20;;
16593;SDS011;8410;52.532;13.336;2023-02-01T03:01:06;15.13;;;3.40;;
16593;SDS011;8410;52.532;13.336;2023-02-01T03:03:51;16.57;;;3.87;;
16593;SDS011;8410;52.532;13.336;2023-02-01T03:06:37;13.80;;;3.77;;
16593;SDS011;8410;52.532;13.336;2023-02-01T03:09:07;19.43;;;3.20;;
16593;SDS011;8410;52.532;13.336;2023-02-01T03:11:39;13.50;;;3.13;;
16593;SDS011;8410;52.532;13.336;2023-02-01T03:14:30;16.30;;;3.90;;
16593;SDS011;8410;52.532;13.336;2023-02-01T03:17:03;20.03;;;3.90;;
16593;SDS011;8410;52.532;13.336;2023-02-01T03:19:36;16.07;;;3.50;;
16593;SDS011;8410;52.532;13.336;2023-02-01T03:22:11;19.60;;;4.60;;
16593;SDS011;8410;52.532;13.336;2023-02-01T03:24:43;21.83;;;4.17;;
16593;SDS011;8410;52.532;13.336;2023-02-01T03:27:13;17.23;;;4.10;;
16593;SDS011;8410;52.532;13.336;2023-02-01T03:29:45;15.47;;;3.50;;
16593;SDS011;8410;52.532;13.336;2023-02-01T03:32:17;22.20;;;3.80;;
16593;SDS011;8410;52.532;13.336;2023-02-01T03:34:44;21.50;;;7.60;;
16593;SDS011;8410;52.532;13.336;2023-02-01T03:37:15;16.50;;;3.67;;
16593;SDS011;8410;52.532;13.336;2023-02-01T03:39:47;18.47;;;3.43;;
16593;SDS011;8410;52.532;13.336;2023-02-01T03:42:21;16.23;;;3.43;;
16593;SDS011;8410;52.532;13.336;2023-02-01T03:44:56;16.97;;;3.60;;
16593;SDS011;8410;52.532;13.336;2023-02-01T03:47:29;15.30;;;3.70;;
16593;SDS011;8410;52.532;13.336;2023-02-01T03:50:02;16.60;;;3.47;;
16593;SDS011;8410;52.532;13.336;2023-02-01T03:52:35;17.00;;;4.27;;
16593;SDS011;8410;52.532;13.336;2023-02-01T03:55:07;17.27;;;3.63;;
16593;SDS011;8410;52.532;13.336;2023-02-01T03:57:37;18.37;;;3.67;;
16593;SDS011;8410;52.532;13.336;2023-02-01T04:00:15;16.17;;;3.67;;
16593;SDS011;8410;52.532;13.336;2023-02-01T04:02:44;18.73;;;3.73;;
16593;SDS011;8410;52.532;13.336;2023-02-01T04:05:11;14.03;;;3.77;;
16593;SDS011;8410;52.532;13.336;2023-02-01T04:07:40;14.33;;;2.73;;
16593;SDS011;8410;52.532;13.336;2023-02-01T04:10:08;18.17;;;3.77;;
16593;SDS011;8410;52.532;13.336;2023-02-01T04:12:37;17.70;;;5.07;;
16593;SDS011;8410;52.532;13.336;2023-02-01T04:15:06;19.63;;;4.30;;
16593;SDS011;8410;52.532;13.336;2023-02-01T04:17:34;16.97;;;3.70;;
16593;SDS011;8410;52.532;13.336;2023-02-01T04:20:01;18.47;;;3.57;;
16593;SDS011;8410;52.532;13.336;2023-02-01T04:22:28;17.87;;;3.77;;
16593;SDS011;8410;52.532;13.336;2023-02-01T04:24:57;18.90;;;4.63;;
16593;SDS011;8410;52.532;13.336;2023-02-01T04:27:25;16.53;;;4.00;;
16593;SDS011;8410;52.532;13.336;2023-02-01T04:29:52;20.20;;;4.23;;
16593;SDS011;8410;52.532;13.336;2023-02-01T04:32:22;18.53;;;3.77;;
16593;SDS011;8410;52.532;13.336;2023-02-01T04:34:50;18.90;;;3.90;;
16593;SDS011;8410;52.532;13.336;2023-02-01T04:37:18;20.77;;;4.67;;
16593;SDS011;8410;52.532;13.336;2023-02-01T04:39:45;16.93;;;4.00;;
16593;SDS011;8410;52.532;13.336;2023-02-01T04:42:14;18.87;;;3.90;;
16593;SDS011;8410;52.532;13.336;2023-02-01T04:44:41;18.30;;;3.57;;
16593;SDS011;8410;52.532;13.336;2023-02-01T04:47:09;16.50;;;3.80;;
16593;SDS011;8410;52.532;13.336;2023-02-01T04:49:37;17.57;;;3.37;;
16593;SDS011;8410;52.532;13.336;2023-02-01T04:52:05;16.10;;;4.47;;
16593;SDS011;8410;52.532;13.336;2023-02-01T04:54:32;17.23;;;3.47;;
16593;SDS011;8410;52.532;13.336;2023-02-01T04:57:00;18.57;;;4.23;;
16593;SDS011;8410;52.532;13.336;2023-02-01T04:59:29;21.00;;;4.23;;
16593;SDS011;8410;52.532;13.336;2023-02-01T05:01:56;17.03;;;4.07;;
16593;SDS011;8410;52.532;13.336;2023-02-01T05:04:24;22.97;;;3.70;;
16593;SDS011;8410;52.532;13.336;2023-02-01T05:06:51;15.77;;;4.00;;
16593;SDS011;8410;52.532;13.336;2023-02-01T05:09:19;14.97;;;3.73;;
16593;SDS011;8410;52.532;13.336;2023-02-01T05:11:48;17.77;;;4.37;;
16593;SDS011;8410;52.532;13.336;2023-02-01T05:14:34;18.10;;;4.07;;
16593;SDS011;8410;52.532;13.336;2023-02-01T05:17:02;16.57;;;3.83;;
16593;SDS011;8410;52.532;13.336;2023-02-01T05:19:29;17.47;;;4.37;;
16593;SDS011;8410;52.532;13.336;2023-02-01T05:21:57;19.70;;;4.57;;
16593;SDS011;8410;52.532;13.336;2023-02-01T05:24:24;19.93;;;3.80;;
16593;SDS011;8410;52.532;13.336;2023-02-01T05:26:53;15.07;;;3.97;;
16593;SDS011;8410;52.532;13.336;2023-02-01T05:29:20;18.50;;;4.07;;
16593;SDS011;8410;52.532;13.336;2023-02-01T05:31:49;15.70;;;3.40;;
16593;SDS011;8410;52.532;13.336;2023-02-01T05:34:17;16.77;;;3.50;;
16593;SDS011;8410;52.532;13.336;2023-02-01T05:36:44;15.63;;;4.17;;
16593;SDS011;8410;52.532;13.336;2023-02-01T05:39:12;19.60;;;3.87;;
16593;SDS011;8410;52.532;13.336;2023-02-01T05:41:39;13.77;;;3.60;;
16593;SDS011;8410;52.532;13.336;2023-02-01T05:44:07;22.70;;;4.13;;
16593;SDS011;8410;52.532;13.336;2023-02-01T05:46:34;21.73;;;3.70;;
16593;SDS011;8410;52.532;13.336;2023-02-01T05:49:04;19.77;;;3.57;;
16593;SDS011;8410;52.532;13.336;2023-02-01T05:51:31;16.97;;;4.27;;
16593;SDS011;8410;52.532;13.336;2023-02-01T05:53:59;18.43;;;4.13;;
16593;SDS011;8410;52.532;13.336;2023-02-01T05:56:27;20.13;;;4.40;;
16593;SDS011;8410;52.532;13.336;2023-02-01T05:58:54;16.73;;;3.80;;
16593;SDS011;8410;52.532;13.336;2023-02-01T06:01:22;15.63;;;3.80;;
16593;SDS011;8410;52.532;13.336;2023-02-01T06:03:49;14.03;;;3.70;;
16593;SDS011;8410;52.532;13.336;2023-02-01T06:06:18;17.93;;;4.60;;
16593;SDS011;8410;52.532;13.336;2023-02-01T06:08:46;19.97;;;4.30;;
16593;SDS011;8410;52.532;13.336;2023-02-01T06:11:13;19.10;;;4.03;;
16593;SDS011;8410;52.532;13.336;2023-02-01T06:13:57;16.33;;;3.70;;
16593;SDS011;8410;52.532;13.336;2023-02-01T06:16:25;14.50;;;4.07;;
16593;SDS011;8410;52.532;13.336;2023-02-01T06:18:53;22.87;;;4.53;;
16593;SDS011;8410;52.532;13.336;2023-02-01T06:21:22;18.70;;;3.87;;
16593;SDS011;8410;52.532;13.336;2023-02-01T06:23:50;17.37;;;3.93;;
16593;SDS011;8410;52.532;13.336;2023-02-01T06:26:18;17.87;;;4.53;;
16593;SDS011;8410;52.532;13.336;2023-02-01T06:28:46;17.20;;;4.27;;
16593;SDS011;8410;52.532;13.336;2023-02-01T06:31:13;16.97;;;4.90;;
16593;SDS011;8410;52.532;13.336;2023-02-01T06:33:41;15.00;;;3.37;;
16593;SDS011;8410;52.532;13.336;2023-02-01T06:36:09;18.63;;;4.23;;
16593;SDS011;8410;52.532;13.336;2023-02-01T06:38:39;14.40;;;3.43;;
16593;SDS011;8410;52.532;13.336;2023-02-01T06:41:07;21.70;;;4.13;;
16593;SDS011;8410;52.532;13.336;2023-02-01T06:43:34;16.40;;;3.47;;
16593;SDS011;8410;52.532;13.336;2023-02-01T06:46:04;11.90;;;3.60;;
16593;SDS011;8410;52.532;13.336;2023-02-01T06:48:34;17.60;;;3.90;;
16593;SDS011;8410;52.532;13.336;2023-02-01T06:51:02;14.40;;;3.93;;
16593;SDS011;8410;52.532;13.336;2023-02-01T06:53:29;20.77;;;4.80;;
16593;SDS011;8410;52.532;13.336;2023-02-01T06:55:59;11.80;;;3.40;;
16593;SDS011;8410;52.532;13.336;2023-02-01T06:58:28;18.37;;;3.83;;
16593;SDS011;8410;52.532;13.336;2023-02-01T07:00:56;15.47;;;3.40;;
16593;SDS011;8410;52.532;13.336;2023-02-01T07:03:24;14.00;;;3.93;;
16593;SDS011;8410;52.532;13.336;2023-02-01T07:05:54;16.03;;;3.37;;
16593;SDS011;8410;52.532;13.336;2023-02-01T07:08:22;18.73;;;4.57;;
16593;SDS011;8410;52.532;13.336;2023-02-01T07:10:50;12.90;;;3.70;;
16593;SDS011;8410;52.532;13.336;2023-02-01T07:13:19;21.30;;;4.23;;
16593;SDS011;8410;52.532;13.336;2023-02-01T07:15:46;15.43;;;3.83;;
16593;SDS011;8410;52.532;13.336;2023-02-01T07:18:14;14.73;;;3.73;;
16593;SDS011;8410;52.532;13.336;2023-02-01T07:20:42;14.77;;;3.70;;
16593;SDS011;8410;52.532;13.336;2023-02-01T07:23:10;15.93;;;3.53;;
16593;SDS011;8410;52.532;13.336;2023-02-01T07:25:37;12.50;;;3.83;;
16593;SDS011;8410;52.532;13.336;2023-02-01T07:28:05;13.70;;;3.43;;
16593;SDS011;8410;52.532;13.336;2023-02-01T07:30:33;14.27;;;3.67;;
16593;SDS011;8410;52.532;13.336;2023-02-01T07:33:01;13.93;;;3.23;;
16593;SDS011;8410;52.532;13.336;2023-02-01T07:35:28;10.97;;;2.90;;
16593;SDS011;8410;52.532;13.336;2023-02-01T07:37:56;14.17;;;3.80;;
16593;SDS011;8410;52.532;13.336;2023-02-01T07:40:24;21.33;;;3.67;;
16593;SDS011;8410;52.532;13.336;2023-02-01T07:42:54;16.33;;;3.93;;
16593;SDS011;8410;52.532;13.336;2023-02-01T07:45:22;15.83;;;4.53;;
16593;SDS011;8410;52.532;13.336;2023-02-01T07:47:52;14.50;;;4.00;;
16593;SDS011;8410;52.532;13.336;2023-02-01T07:50:20;19.63;;;4.13;;
16593;SDS011;8410;52.532;13.336;2023-02-01T07:52:48;15.73;;;3.37;;
16593;SDS011;8410;52.532;13.336;2023-02-01T07:55:15;14.80;;;3.20;;
16593;SDS011;8410;52.532;13.336;2023-02-01T07:57:43;16.50;;;3.70;;
16593;SDS011;8410;52.532;13.336;2023-02-01T08:00:11;15.90;;;4.10;;
16593;SDS011;8410;52.532;13.336;2023-02-01T08:02:58;14.63;;;3.27;;
16593;SDS011;8410;52.532;13.336;2023-02-01T08:05:26;13.00;;;3.77;;
16593;SDS011;8410;52.532;13.336;2023-02-01T08:07:54;15.53;;;4.23;;
16593;SDS011;8410;52.532;13.336;2023-02-01T08:10:22;10.90;;;3.80;;
16593;SDS011;8410;52.532;13.336;2023-02-01T08:12:50;12.07;;;3.77;;
16593;SDS011;8410;52.532;13.336;2023-02-01T08:15:18;14.00;;;3.60;;
16593;SDS011;8410;52.532;13.336;2023-02-01T08:17:46;14.90;;;4.10;;
16593;SDS011;8410;52.532;13.336;2023-02-01T08:20:15;14.00;;;3.53;;
16593;SDS011;8410;52.532;13.336;2023-02-01T08:22:43;13.87;;;4.37;;
16593;SDS011;8410;52.532;13.336;2023-02-01T08:25:11;11.90;;;4.20;;
16593;SDS011;8410;52.532;13.336;2023-02-01T08:27:39;14.93;;;4.07;;
16593;SDS011;8410;52.532;13.336;2023-02-01T08:30:07;11.43;;;4.27;;
16593;SDS011;8410;52.532;13.336;2023-02-01T08:32:35;9.70;;;3.73;;
16593;SDS011;8410;52.532;13.336;2023-02-01T08:35:03;11.13;;;3.73;;
16593;SDS011;8410;52.532;13.336;2023-02-01T08:37:32;11.30;;;3.97;;
16593;SDS011;8410;52.532;13.336;2023-02-01T08:39:59;11.40;;;4.37;;
16593;SDS011;8410;52.532;13.336;2023-02-01T08:42:27;12.67;;;4.00;;
16593;SDS011;8410;52.532;13.336;2023-02-01T08:45:12;9.87;;;3.63;;
16593;SDS011;8410;52.532;13.336;2023-02-01T08:47:40;10.63;;;4.07;;
16593;SDS011;8410;52.532;13.336;2023-02-01T08:50:08;12.17;;;4.17;;
16593;SDS011;8410;52.532;13.336;2023-02-01T08:52:38;7.23;;;3.10;;
16593;SDS011;8410;52.532;13.336;2023-02-01T08:55:06;7.47;;;2.73;;
16593;SDS011;8410;52.532;13.336;2023-02-01T08:57:34;9.87;;;3.03;;
16593;SDS011;8410;52.532;13.336;2023-02-01T09:00:02;8.13;;;2.73;;
16593;SDS011;8410;52.532;13.336;2023-02-01T09:02:31;6.40;;;2.83;;
16593;SDS011;8410;52.532;13.336;2023-02-01T09:04:58;6.10;;;1.90;;
16593;SDS011;8410;52.532;13.336;2023-02-01T09:07:26;5.77;;;2.23;;
16593;SDS011;8410;52.532;13.336;2023-02-01T09:09:55;5.53;;;2.33;;
16593;SDS011;8410;52.532;13.336;2023-02-01T09:12:26;5.57;;;1.97;;
16593;SDS011;8410;52.532;13.336;2023-02-01T09:14:54;8.00;;;2.50;;
16593;SDS011;8410;52.532;13.336;2023-02-01T09:17:22;6.37;;;2.20;;
16593;SDS011;8410;52.532;13.336;2023-02-01T09:19:49;5.97;;;1.90;;
16593;SDS011;8410;52.532;13.336;2023-02-01T09:22:17;3.37;;;1.70;;
16593;SDS011;8410;52.532;13.336;2023-02-01T09:24:44;3.87;;;1.50;;
16593;SDS011;8410;52.532;13.336;2023-02-01T09:27:13;6.93;;;2.47;;
16593;SDS011;8410;52.532;13.336;2023-02-01T09:29:41;4.23;;;1.63;;
16593;SDS011;8410;52.532;13.336;2023-02-01T09:32:09;4.53;;;1.57;;
16593;SDS011;8410;52.532;13.336;2023-02-01T09:34:37;5.57;;;1.90;;
16593;SDS011;8410;52.532;13.336;2023-02-01T09:37:04;5.90;;;1.60;;
16593;SDS011;8410;52.532;13.336;2023-02-01T09:39:32;7.03;;;1.63;;
16593;SDS011;8410;52.532;13.336;2023-02-01T09:42:02;4.83;;;1.57;;
16593;SDS011;8410;52.532;13.336;2023-02-01T09:44:49;3.10;;;1.33;;
16593;SDS011;8410;52.532;13.336;2023-02-01T09:47:25;4.43;;;1.10;;
16593;SDS011;8410;52.532;13.336;2023-02-01T09:49:55;5.03;;;1.50;;
16593;SDS011;8410;52.532;13.336;2023-02-01T09:52:27;5.97;;;1.43;;
16593;SDS011;8410;52.532;13.336;2023-02-01T09:55:03;4.63;;;1.50;;
16593;SDS011;8410;52.532;13.336;2023-02-01T09:57:39;4.80;;;1.40;;
16593;SDS011;8410;52.532;13.336;2023-02-01T10:00:16;3.50;;;1.20;;
16593;SDS011;8410;52.532;13.336;2023-02-01T10:02:50;3.97;;;1.50;;
16593;SDS011;8410;52.532;13.336;2023-02-01T10:05:21;4.43;;;1.20;;
16593;SDS011;8410;52.532;13.336;2023-02-01T10:08:03;3.03;;;1.40;;
16593;SDS011;8410;52.532;13.336;2023-02-01T10:10:35;4.07;;;1.43;;
16593;SDS011;8410;52.532;13.336;2023-02-01T10:13:21;3.63;;;1.40;;
16593;SDS011;8410;52.532;13.336;2023-02-01T10:16:04;5.50;;;1.87;;
16593;SDS011;8410;52.532;13.336;2023-02-01T10:18:49;7.73;;;1.50;;
16593;SDS011;8410;52.532;13.336;2023-02-01T10:21:36;4.87;;;2.00;;
16593;SDS011;8410;52.532;13.336;2023-02-01T10:24:17;6.50;;;1.77;;
16593;SDS011;8410;52.532;13.336;2023-02-01T10:26:55;6.27;;;2.23;;
16593;SDS011;8410;52.532;13.336;2023-02-01T10:29:27;4.47;;;1.90;;
16593;SDS011;8410;52.532;13.336;2023-02-01T10:32:02;4.90;;;1.47;;
16593;SDS011;8410;52.532;13.336;2023-02-01T10:34:37;6.53;;;1.83;;
16593;SDS011;8410;52.532;13.336;2023-02-01T10:37:08;5.03;;;2.10;;
16593;SDS011;8410;52.532;13.336;2023-02-01T10:39:45;5.80;;;1.73;;
16593;SDS011;8410;52.532;13.336;2023-02-01T10:42:14;9.10;;;2.00;;
16593;SDS011;8410;52.532;13.336;2023-02-01T10:44:43;5.90;;;1.93;;
16593;SDS011;8410;52.532;13.336;2023-02-01T10:47:15;8.23;;;1.90;;
16593;SDS011;8410;52.532;13.336;2023-02-01T10:49:43;7.53;;;2.10;;
16593;SDS011;8410;52.532;13.336;2023-02-01T10:52:17;6.53;;;1.80;;
16593;SDS011;8410;52.532;13.336;2023-02-01T10:54:48;5.80;;;1.73;;
16593;SDS011;8410;52.532;13.336;2023-02-01T10:57:20;5.27;;;1.60;;
16593;SDS011;8410;52.532;13.336;2023-02-01T10:59:51;8.43;;;1.97;;
16593;SDS011;8410;52.532;13.336;2023-02-01T11:02:23;5.83;;;2.20;;
16593;SDS011;8410;52.532;13.336;2023-02-01T11:04:58;9.30;;;1.90;;
16593;SDS011;8410;52.532;13.336;2023-02-01T11:07:27;7.53;;;2.13;;
16593;SDS011;8410;52.532;13.336;2023-02-01T11:09:56;4.17;;;1.93;;
16593;SDS011;8410;52.532;13.336;2023-02-01T11:12:28;5.57;;;1.50;;
16593;SDS011;8410;52.532;13.336;2023-02-01T11:14:58;8.23;;;2.60;;
16593;SDS011;8410;52.532;13.336;2023-02-01T11:17:32;6.70;;;2.03;;
16593;SDS011;8410;52.532;13.336;2023-02-01T11:20:03;3.93;;;1.57;;
16593;SDS011;8410;52.532;13.336;2023-02-01T11:22:44;6.73;;;2.10;;
16593;SDS011;8410;52.532;13.336;2023-02-01T11:25:13;5.47;;;1.73;;
16593;SDS011;8410;52.532;13.336;2023-02-01T11:27:43;6.57;;;1.93;;
16593;SDS011;8410;52.532;13.336;2023-02-01T11:30:22;5.33;;;1.83;;
16593;SDS011;8410;52.532;13.336;2023-02-01T11:33:00;8.53;;;2.03;;
16593;SDS011;8410;52.532;13.336;2023-02-01T11:35:31;8.60;;;2.40;;
16593;SDS011;8410;52.532;13.336;2023-02-01T11:38:09;9.03;;;2.40;;
16593;SDS011;8410;52.532;13.336;2023-02-01T11:40:40;10.57;;;2.50;;
16593;SDS011;8410;52.532;13.336;2023-02-01T11:43:14;10.10;;;2.20;;
16593;SDS011;8410;52.532;13.336;2023-02-01T11:45:53;9.50;;;2.43;;
16593;SDS011;8410;52.532;13.336;2023-02-01T11:48:25;6.30;;;2.03;;
16593;SDS011;8410;52.532;13.336;2023-02-01T11:50:57;6.93;;;2.60;;
16593;SDS011;8410;52.532;13.336;2023-02-01T11:53:44;7.57;;;2.50;;
16593;SDS011;8410;52.532;13.336;2023-02-01T11:56:25;8.77;;;2.37;;
16593;SDS011;8410;52.532;13.336;2023-02-01T11:59:02;8.33;;;2.83;;
16593;SDS011;8410;52.532;13.336;2023-02-01T12:01:42;8.93;;;2.73;;
16593;SDS011;8410;52.532;13.336;2023-02-01T12:04:46;8.50;;;2.47;;
16593;SDS011;8410;52.532;13.336;2023-02-01T12:07:27;8.20;;;2.43;;
16593;SDS011;8410;52.532;13.336;2023-02-01T12:10:11;6.37;;;2.23;;
16593;SDS011;8410;52.532;13.336;2023-02-01T12:12:51;6.33;;;1.93;;
16593;SDS011;8410;52.532;13.336;2023-02-01T12:15:27;8.23;;;1.97;;
16593;SDS011;8410;52.532;13.336;2023-02-01T12:18:27;8.50;;;2.40;;
16593;SDS011;8410;52.532;13.336;2023-02-01T12:21:06;8.07;;;2.20;;
16593;SDS011;8410;52.532;13.336;2023-02-01T12:23:48;7.27;;;2.30;;
16593;SDS011;8410;52.532;13.336;2023-02-01T12:29:17;8.33;;;3.50;;
16593;SDS011;8410;52.532;13.336;2023-02-01T12:34:57;8.37;;;2.20;;
16593;SDS011;8410;52.532;13.336;2023-02-01T12:37:41;7.77;;;2.60;;
16593;SDS011;8410;52.532;13.336;2023-02-01T12:40:25;7.23;;;1.93;;
16593;SDS011;8410;52.532;13.336;2023-02-01T12:43:04;10.10;;;2.53;;
16593;SDS011;8410;52.532;13.336;2023-02-01T12:45:38;7.53;;;2.50;;
16593;SDS011;8410;52.532;13.336;2023-02-01T12:48:16;12.37;;;2.70;;
16593;SDS011;8410;52.532;13.336;2023-02-01T12:50:53;6.77;;;2.17;;
16593;SDS011;8410;52.532;13.336;2023-02-01T12:53:27;9.37;;;2.20;;
16593;SDS011;8410;52.532;13.336;2023-02-01T12:56:01;7.50;;;2.10;;
16593;SDS011;8410;52.532;13.336;2023-02-01T12:58:35;10.33;;;2.53;;
16593;SDS011;8410;52.532;13.336;2023-02-01T13:01:09;7.27;;;2.37;;
16593;SDS011;8410;52.532;13.336;2023-02-01T13:03:42;11.57;;;2.80;;
16593;SDS011;8410;52.532;13.336;2023-02-01T13:06:17;10.83;;;2.03;;
16593;SDS011;8410;52.532;13.336;2023-02-01T13:08:50;8.93;;;2.60;;
16593;SDS011;8410;52.532;13.336;2023-02-01T13:11:24;5.80;;;1.87;;
16593;SDS011;8410;52.532;13.336;2023-02-01T13:13:58;9.73;;;2.30;;
16593;SDS011;8410;52.532;13.336;2023-02-01T13:16:30;13.20;;;2.40;;
16593;SDS011;8410;52.532;13.336;2023-02-01T13:19:03;8.77;;;2.23;;
16593;SDS011;8410;52.532;13.336;2023-02-01T13:21:39;5.47;;;2.00;;
16593;SDS011;8410;52.532;13.336;2023-02-01T13:24:20;8.77;;;2.07;;
16593;SDS011;8410;52.532;13.336;2023-02-01T13:26:55;6.53;;;1.97;;
16593;SDS011;8410;52.532;13.336;2023-02-01T13:29:23;9.87;;;2.17;;
16593;SDS011;8410;52.532;13.336;2023-02-01T13:31:57;8.53;;;2.77;;
16593;SDS011;8410;52.532;13.336;2023-02-01T13:34:41;9.93;;;2.30;;
16593;SDS011;8410;52.532;13.336;2023-02-01T13:37:36;9.37;;;2.20;;
16593;SDS011;8410;52.532;13.336;2023-02-01T13:40:28;19.00;;;8.50;;
16593;SDS011;8410;52.532;13.336;2023-02-01T13:43:05;12.83;;;3.60;;
16593;SDS011;8410;52.532;13.336;2023-02-01T13:45:41;8.67;;;2.70;;
16593;SDS011;8410;52.532;13.336;2023-02-01T13:48:17;9.53;;;2.67;;
16593;SDS011;8410;52.532;13.336;2023-02-01T13:50:49;9.27;;;2.87;;
16593;SDS011;8410;52.532;13.336;2023-02-01T13:53:21;7.67;;;2.27;;
16593;SDS011;8410;52.532;13.336;2023-02-01T13:55:56;9.60;;;2.50;;
16593;SDS011;8410;52.532;13.336;2023-02-01T13:58:30;9.17;;;2.80;;
16593;SDS011;8410;52.532;13.336;2023-02-01T14:07:20;9.13;;;2.60;;
16593;SDS011;8410;52.532;13.336;2023-02-01T14:09:49;7.27;;;1.90;;
16593;SDS011;8410;52.532;13.336;2023-02-01T14:15:25;13.40;;;2.90;;
16593;SDS011;8410;52.532;13.336;2023-02-01T14:17:54;8.57;;;2.50;;
16593;SDS011;8410;52.532;13.336;2023-02-01T14:23:15;8.53;;;2.20;;
16593;SDS011;8410;52.532;13.336;2023-02-01T14:25:45;12.60;;;2.87;;
16593;SDS011;8410;52.532;13.336;2023-02-01T14:28:28;10.70;;;2.53;;
16593;SDS011;8410;52.532;13.336;2023-02-01T14:30:57;12.10;;;2.93;;
16593;SDS011;8410;52.532;13.336;2023-02-01T14:33:26;12.47;;;3.53;;
16593;SDS011;8410;52.532;13.336;2023-02-01T14:35:57;14.10;;;2.77;;
16593;SDS011;8410;52.532;13.336;2023-02-01T14:38:30;14.17;;;6.17;;
16593;SDS011;8410;52.532;13.336;2023-02-01T14:41:13;13.67;;;4.87;;
16593;SDS011;8410;52.532;13.336;2023-02-01T14:50:07;11.17;;;3.43;;
16593;SDS011;8410;52.532;13.336;2023-02-01T14:52:42;11.73;;;3.30;;
16593;SDS011;8410;52.532;13.336;2023-02-01T14:55:14;13.40;;;3.53;;
16593;SDS011;8410;52.532;13.336;2023-02-01T14:57:45;12.27;;;3.40;;
16593;SDS011;8410;52.532;13.336;2023-02-01T15:00:19;11.10;;;3.30;;
16593;SDS011;8410;52.532;13.336;2023-02-01T15:02:49;9.80;;;3.03;;
16593;SDS011;8410;52.532;13.336;2023-02-01T15:05:30;9.67;;;2.80;;
16593;SDS011;8410;52.532;13.336;2023-02-01T15:08:00;9.37;;;3.90;;
16593;SDS011;8410;52.532;13.336;2023-02-01T15:10:32;14.70;;;5.60;;
16593;SDS011;8410;52.532;13.336;2023-02-01T15:13:12;5.63;;;2.37;;
16593;SDS011;8410;52.532;13.336;2023-02-01T15:16:00;8.57;;;2.37;;
16593;SDS011;8410;52.532;13.336;2023-02-01T15:18:32;5.90;;;2.23;;
16593;SDS011;8410;52.532;13.336;2023-02-01T15:21:00;4.03;;;1.80;;
16593;SDS011;8410;52.532;13.336;2023-02-01T15:23:49;3.57;;;1.40;;
16593;SDS011;8410;52.532;13.336;2023-02-01T15:26:26;2.67;;;1.33;;
16593;SDS011;8410;52.532;13.336;2023-02-01T15:28:56;5.80;;;1.70;;
16593;SDS011;8410;52.532;13.336;2023-02-01T15:31:33;3.50;;;1.37;;